sensor_id;sensor_type;location;lat;lon;timestamp;pressure;altitude;pressure_sealevel;temperature;humidity
67015;BME280;1033;52.560;13.374;2022-08-20T00:00:21;100695.13;;;20.17;100.00
67015;BME280;1033;52.560;13.374;2022-08-20T00:02:56;100692.13;;;20.18;100.00
67015;BME280;1033;52.560;13.374;2022-08-20T00:05:28;100692.66;;;20.20;100.00
67015;BME280;1033;52.560;13.374;2022-08-20T00:07:59;100699.56;;;20.28;100.00
67015;BME280;1033;52.560;13.374;2022-08-20T00:10:29;100701.47;;;20.27;100.00
67015;BME280;1033;52.560;13.374;2022-08-20T00:12:59;100707.47;;;20.19;100.00
67015;BME280;1033;52.560;13.374;2022-08-20T00:15:33;100708.59;;;20.28;100.00
67015;BME280;1033;52.560;13.374;2022-08-20T00:18:04;100720.75;;;20.32;100.00
67015;BME280;1033;52.560;13.374;2022-08-20T00:20:38;100715.72;;;20.19;100.00
67015;BME280;1033;52.560;13.374;2022-08-20T00:23:08;100710.25;;;20.24;100.00
67015;BME280;1033;52.560;13.374;2022-08-20T00:25:38;100710.31;;;20.34;100.00
67015;BME280;1033;52.560;13.374;2022-08-20T00:28:08;100711.97;;;20.41;100.00
67015;BME280;1033;52.560;13.374;2022-08-20T00:30:40;100712.81;;;20.41;100.00
67015;BME280;1033;52.560;13.374;2022-08-20T00:33:15;100720.47;;;20.34;100.00
67015;BME280;1033;52.560;13.374;2022-08-20T00:35:49;100720.22;;;20.35;100.00
67015;BME280;1033;52.560;13.374;2022-08-20T00:38:19;100724.59;;;20.31;100.00
67015;BME280;1033;52.560;13.374;2022-08-20T00:40:52;100711.72;;;20.42;100.00
67015;BME280;1033;52.560;13.374;2022-08-20T00:43:33;100723.53;;;20.37;100.00
67015;BME280;1033;52.560;13.374;2022-08-20T00:46:08;100717.50;;;20.51;100.00
67015;BME280;1033;52.560;13.374;2022-08-20T00:48:42;100716.38;;;20.47;100.00
67015;BME280;1033;52.560;13.374;2022-08-20T00:51:23;100718.56;;;20.45;100.00
67015;BME280;1033;52.560;13.374;2022-08-20T00:54:02;100713.88;;;20.35;100.00
67015;BME280;1033;52.560;13.374;2022-08-20T00:56:34;100708.13;;;20.42;100.00
67015;BME280;1033;52.560;13.374;2022-08-20T00:59:08;100721.31;;;20.45;100.00
67015;BME280;1033;52.560;13.374;2022-08-20T01:01:40;100718.56;;;20.39;100.00
67015;BME280;1033;52.560;13.374;2022-08-20T01:04:24;100713.91;;;20.40;100.00
67015;BME280;1033;52.560;13.374;2022-08-20T01:06:55;100718.28;;;20.36;100.00
67015;BME280;1033;52.560;13.374;2022-08-20T01:09:24;100721.25;;;20.29;100.00
67015;BME280;1033;52.560;13.374;2022-08-20T01:12:15;100721.25;;;20.29;100.00
67015;BME280;1033;52.560;13.374;2022-08-20T01:14:46;100724.63;;;20.42;100.00
67015;BME280;1033;52.560;13.374;2022-08-20T01:17:20;100728.75;;;20.44;100.00
67015;BME280;1033;52.560;13.374;2022-08-20T01:19:58;100729.31;;;20.51;99.42
67015;BME280;1033;52.560;13.374;2022-08-20T01:22:37;100724.63;;;20.47;99.35
67015;BME280;1033;52.560;13.374;2022-08-20T01:25:40;100721.91;;;20.57;98.23
67015;BME280;1033;52.560;13.374;2022-08-20T01:28:10;100727.94;;;20.59;97.38
67015;BME280;1033;52.560;13.374;2022-08-20T01:30:41;100728.50;;;20.51;97.75
67015;BME280;1033;52.560;13.374;2022-08-20T01:33:11;100726.81;;;20.45;98.54
67015;BME280;1033;52.560;13.374;2022-08-20T01:35:41;100725.69;;;20.35;97.96
67015;BME280;1033;52.560;13.374;2022-08-20T01:38:12;100727.28;;;20.26;99.08
67015;BME280;1033;52.560;13.374;2022-08-20T01:41:01;100728.72;;;20.39;98.32
67015;BME280;1033;52.560;13.374;2022-08-20T01:43:32;100730.09;;;20.36;98.08
67015;BME280;1033;52.560;13.374;2022-08-20T01:46:04;100732.78;;;20.26;98.80
67015;BME280;1033;52.560;13.374;2022-08-20T01:48:33;100727.56;;;20.30;99.41
67015;BME280;1033;52.560;13.374;2022-08-20T01:51:07;100738.53;;;20.20;100.00
67015;BME280;1033;52.560;13.374;2022-08-20T01:53:40;100730.00;;;20.11;100.00
67015;BME280;1033;52.560;13.374;2022-08-20T01:56:15;100734.63;;;20.06;100.00
67015;BME280;1033;52.560;13.374;2022-08-20T01:58:49;100737.84;;;19.87;100.00
67015;BME280;1033;52.560;13.374;2022-08-20T02:01:30;100736.44;;;19.75;100.00
67015;BME280;1033;52.560;13.374;2022-08-20T02:04:14;100742.16;;;19.68;100.00
67015;BME280;1033;52.560;13.374;2022-08-20T02:06:49;100746.75;;;19.58;100.00
67015;BME280;1033;52.560;13.374;2022-08-20T02:09:25;100748.13;;;19.55;100.00
67015;BME280;1033;52.560;13.374;2022-08-20T02:11:57;100739.00;;;19.49;100.00
67015;BME280;1033;52.560;13.374;2022-08-20T02:14:27;100751.34;;;19.47;100.00
67015;BME280;1033;52.560;13.374;2022-08-20T02:16:57;100747.69;;;19.41;100.00
67015;BME280;1033;52.560;13.374;2022-08-20T02:19:36;100755.38;;;19.39;100.00
67015;BME280;1033;52.560;13.374;2022-08-20T02:22:16;100757.53;;;19.37;100.00
67015;BME280;1033;52.560;13.374;2022-08-20T02:24:46;100760.56;;;19.36;100.00
67015;BME280;1033;52.560;13.374;2022-08-20T02:27:16;100758.66;;;19.41;100.00
67015;BME280;1033;52.560;13.374;2022-08-20T02:29:46;100764.41;;;19.35;100.00
67015;BME280;1033;52.560;13.374;2022-08-20T02:32:16;100758.63;;;19.31;100.00
67015;BME280;1033;52.560;13.374;2022-08-20T02:35:00;100755.84;;;19.26;100.00
67015;BME280;1033;52.560;13.374;2022-08-20T02:37:30;100759.16;;;19.33;100.00
67015;BME280;1033;52.560;13.374;2022-08-20T02:40:00;100761.91;;;19.33;100.00
67015;BME280;1033;52.560;13.374;2022-08-20T02:42:30;100767.47;;;19.43;100.00
67015;BME280;1033;52.560;13.374;2022-08-20T02:45:00;100762.84;;;19.44;100.00
67015;BME280;1033;52.560;13.374;2022-08-20T02:47:29;100766.09;;;19.41;100.00
67015;BME280;1033;52.560;13.374;2022-08-20T02:49:58;100765.81;;;19.42;100.00
67015;BME280;1033;52.560;13.374;2022-08-20T02:52:27;100767.81;;;19.47;100.00
67015;BME280;1033;52.560;13.374;2022-08-20T02:54:56;100762.00;;;19.43;100.00
67015;BME280;1033;52.560;13.374;2022-08-20T02:57:27;100768.13;;;19.50;100.00
67015;BME280;1033;52.560;13.374;2022-08-20T02:59:58;100768.91;;;19.51;100.00
67015;BME280;1033;52.560;13.374;2022-08-20T03:02:28;100761.47;;;19.46;100.00
67015;BME280;1033;52.560;13.374;2022-08-20T03:04:58;100760.19;;;19.54;100.00
67015;BME280;1033;52.560;13.374;2022-08-20T03:07:27;100758.25;;;19.55;100.00
67015;BME280;1033;52.560;13.374;2022-08-20T03:09:56;100752.53;;;19.61;100.00
67015;BME280;1033;52.560;13.374;2022-08-20T03:12:25;100749.22;;;19.59;100.00
67015;BME280;1033;52.560;13.374;2022-08-20T03:14:55;100746.75;;;19.58;100.00
67015;BME280;1033;52.560;13.374;2022-08-20T03:17:25;100738.47;;;19.52;100.00
67015;BME280;1033;52.560;13.374;2022-08-20T03:19:54;100742.91;;;19.59;100.00
67015;BME280;1033;52.560;13.374;2022-08-20T03:22:23;100740.72;;;19.56;100.00
67015;BME280;1033;52.560;13.374;2022-08-20T03:24:52;100739.34;;;19.58;100.00
67015;BME280;1033;52.560;13.374;2022-08-20T03:27:22;100737.97;;;19.61;100.00
67015;BME280;1033;52.560;13.374;2022-08-20T03:29:59;100735.78;;;19.63;100.00
67015;BME280;1033;52.560;13.374;2022-08-20T03:32:30;100740.19;;;19.64;100.00
67015;BME280;1033;52.560;13.374;2022-08-20T03:34:59;100731.94;;;19.59;100.00
67015;BME280;1033;52.560;13.374;2022-08-20T03:37:31;100735.22;;;19.61;100.00
67015;BME280;1033;52.560;13.374;2022-08-20T03:40:04;100731.97;;;19.64;100.00
67015;BME280;1033;52.560;13.374;2022-08-20T03:42:34;100724.31;;;19.71;100.00
67015;BME280;1033;52.560;13.374;2022-08-20T03:45:04;100731.44;;;19.72;100.00
67015;BME280;1033;52.560;13.374;2022-08-20T03:47:35;100724.03;;;19.72;100.00
67015;BME280;1033;52.560;13.374;2022-08-20T03:50:08;100729.28;;;19.74;100.00
67015;BME280;1033;52.560;13.374;2022-08-20T03:52:49;100730.09;;;19.74;100.00
67015;BME280;1033;52.560;13.374;2022-08-20T03:55:21;100739.13;;;19.65;100.00
67015;BME280;1033;52.560;13.374;2022-08-20T03:57:53;100738.59;;;19.73;100.00
67015;BME280;1033;52.560;13.374;2022-08-20T04:00:31;100744.69;;;19.80;100.00
67015;BME280;1033;52.560;13.374;2022-08-20T04:03:02;100750.47;;;19.83;100.00
67015;BME280;1033;52.560;13.374;2022-08-20T04:05:32;100745.75;;;19.74;100.00
67015;BME280;1033;52.560;13.374;2022-08-20T04:08:03;100748.53;;;19.79;100.00
67015;BME280;1033;52.560;13.374;2022-08-20T04:10:36;100746.31;;;19.81;100.00
67015;BME280;1033;52.560;13.374;2022-08-20T04:13:06;100751.31;;;19.84;100.00
67015;BME280;1033;52.560;13.374;2022-08-20T04:15:36;100748.81;;;19.82;100.00
67015;BME280;1033;52.560;13.374;2022-08-20T04:18:08;100754.00;;;19.74;100.00
67015;BME280;1033;52.560;13.374;2022-08-20T04:20:41;100757.84;;;19.78;100.00
67015;BME280;1033;52.560;13.374;2022-08-20T04:23:10;100764.44;;;19.77;100.00
67015;BME280;1033;52.560;13.374;2022-08-20T04:25:42;100764.41;;;19.72;100.00
67015;BME280;1033;52.560;13.374;2022-08-20T04:28:15;100759.19;;;19.70;100.00
67015;BME280;1033;52.560;13.374;2022-08-20T04:30:48;100758.94;;;19.77;100.00
67015;BME280;1033;52.560;13.374;2022-08-20T04:33:21;100755.97;;;19.83;100.00
67015;BME280;1033;52.560;13.374;2022-08-20T04:36:03;100749.34;;;19.79;100.00
67015;BME280;1033;52.560;13.374;2022-08-20T04:38:34;100753.19;;;19.78;100.00
67015;BME280;1033;52.560;13.374;2022-08-20T04:41:17;100754.53;;;19.76;100.00
67015;BME280;1033;52.560;13.374;2022-08-20T04:43:51;100761.13;;;19.75;100.00
67015;BME280;1033;52.560;13.374;2022-08-20T04:46:24;100755.13;;;19.83;100.00
67015;BME280;1033;52.560;13.374;2022-08-20T04:48:57;100746.34;;;19.86;100.00
67015;BME280;1033;52.560;13.374;2022-08-20T04:51:27;100762.50;;;19.77;100.00
67015;BME280;1033;52.560;13.374;2022-08-20T04:53:58;100761.69;;;19.77;100.00
67015;BME280;1033;52.560;13.374;2022-08-20T04:56:32;100769.41;;;19.85;100.00
67015;BME280;1033;52.560;13.374;2022-08-20T04:59:06;100766.09;;;19.78;100.00
67015;BME280;1033;52.560;13.374;2022-08-20T05:01:36;100769.38;;;19.75;100.00
67015;BME280;1033;52.560;13.374;2022-08-20T05:04:06;100769.69;;;19.83;100.00
67015;BME280;1033;52.560;13.374;2022-08-20T05:06:35;100769.69;;;19.83;100.00
67015;BME280;1033;52.560;13.374;2022-08-20T05:09:05;100771.06;;;19.86;100.00
67015;BME280;1033;52.560;13.374;2022-08-20T05:11:34;100776.31;;;19.87;100.00
67015;BME280;1033;52.560;13.374;2022-08-20T05:14:06;100781.53;;;19.89;100.00
67015;BME280;1033;52.560;13.374;2022-08-20T05:16:37;100783.41;;;19.83;100.00
67015;BME280;1033;52.560;13.374;2022-08-20T05:19:11;100791.41;;;19.90;100.00
67015;BME280;1033;52.560;13.374;2022-08-20T05:21:40;100795.81;;;19.91;100.00
67015;BME280;1033;52.560;13.374;2022-08-20T05:24:09;100792.53;;;19.89;100.00
67015;BME280;1033;52.560;13.374;2022-08-20T05:26:39;100790.59;;;19.89;100.00
67015;BME280;1033;52.560;13.374;2022-08-20T05:29:08;100786.25;;;19.99;100.00
67015;BME280;1033;52.560;13.374;2022-08-20T05:31:38;100780.19;;;19.96;100.00
67015;BME280;1033;52.560;13.374;2022-08-20T05:34:11;100782.38;;;19.94;100.00
67015;BME280;1033;52.560;13.374;2022-08-20T05:36:43;100779.38;;;20.01;100.00
67015;BME280;1033;52.560;13.374;2022-08-20T05:39:16;100788.97;;;19.93;100.00
67015;BME280;1033;52.560;13.374;2022-08-20T05:41:48;100788.16;;;19.98;100.00
67015;BME280;1033;52.560;13.374;2022-08-20T05:44:18;100789.81;;;19.94;100.00
67015;BME280;1033;52.560;13.374;2022-08-20T05:46:48;100792.31;;;20.06;100.00
67015;BME280;1033;52.560;13.374;2022-08-20T05:49:20;100785.78;;;20.17;100.00
67015;BME280;1033;52.560;13.374;2022-08-20T05:51:49;100796.47;;;20.08;100.00
67015;BME280;1033;52.560;13.374;2022-08-20T05:54:19;100806.59;;;20.03;100.00
67015;BME280;1033;52.560;13.374;2022-08-20T05:56:49;100799.69;;;20.00;100.00
67015;BME280;1033;52.560;13.374;2022-08-20T05:59:18;100798.09;;;20.09;100.00
67015;BME280;1033;52.560;13.374;2022-08-20T06:01:51;100792.63;;;20.14;100.00
67015;BME280;1033;52.560;13.374;2022-08-20T06:04:21;100794.84;;;20.17;100.00
67015;BME280;1033;52.560;13.374;2022-08-20T06:07:02;100795.13;;;20.21;100.00
67015;BME280;1033;52.560;13.374;2022-08-20T06:09:32;100792.66;;;20.24;98.85
67015;BME280;1033;52.560;13.374;2022-08-20T06:12:05;100795.41;;;20.24;99.36
67015;BME280;1033;52.560;13.374;2022-08-20T06:14:35;100800.94;;;20.29;98.78
67015;BME280;1033;52.560;13.374;2022-08-20T06:17:08;100797.09;;;20.25;98.30
67015;BME280;1033;52.560;13.374;2022-08-20T06:19:43;100808.31;;;20.24;98.71
67015;BME280;1033;52.560;13.374;2022-08-20T06:22:15;100811.50;;;20.43;98.67
67015;BME280;1033;52.560;13.374;2022-08-20T06:24:54;100810.31;;;20.33;97.67
67015;BME280;1033;52.560;13.374;2022-08-20T06:27:23;100812.28;;;20.43;97.25
67015;BME280;1033;52.560;13.374;2022-08-20T06:29:53;100812.56;;;20.42;97.40
67015;BME280;1033;52.560;13.374;2022-08-20T06:32:23;100810.97;;;20.51;97.41
67015;BME280;1033;52.560;13.374;2022-08-20T06:35:01;100821.41;;;20.54;96.74
67015;BME280;1033;52.560;13.374;2022-08-20T06:37:32;100821.38;;;20.44;97.33
67015;BME280;1033;52.560;13.374;2022-08-20T06:40:09;100826.94;;;20.64;97.41
67015;BME280;1033;52.560;13.374;2022-08-20T06:42:38;100826.38;;;20.57;96.00
67015;BME280;1033;52.560;13.374;2022-08-20T06:45:18;100835.72;;;20.56;96.57
67015;BME280;1033;52.560;13.374;2022-08-20T06:47:48;100835.97;;;20.49;97.36
67015;BME280;1033;52.560;13.374;2022-08-20T06:50:23;100839.28;;;20.56;97.68
67015;BME280;1033;52.560;13.374;2022-08-20T06:52:55;100835.16;;;20.54;97.25
67015;BME280;1033;52.560;13.374;2022-08-20T06:55:25;100837.91;;;20.54;97.21
67015;BME280;1033;52.560;13.374;2022-08-20T06:57:59;100838.97;;;20.53;97.24
67015;BME280;1033;52.560;13.374;2022-08-20T07:00:30;100832.13;;;20.50;97.31
67015;BME280;1033;52.560;13.374;2022-08-20T07:03:01;100835.72;;;20.56;96.85
67015;BME280;1033;52.560;13.374;2022-08-20T07:05:36;100835.09;;;20.38;97.29
67015;BME280;1033;52.560;13.374;2022-08-20T07:08:10;100832.06;;;20.40;98.13
67015;BME280;1033;52.560;13.374;2022-08-20T07:10:41;100838.69;;;20.44;97.50
67015;BME280;1033;52.560;13.374;2022-08-20T07:13:12;100847.22;;;20.43;97.65
67015;BME280;1033;52.560;13.374;2022-08-20T07:15:43;100848.91;;;20.54;97.32
67015;BME280;1033;52.560;13.374;2022-08-20T07:18:14;100847.25;;;20.48;97.96
67015;BME280;1033;52.560;13.374;2022-08-20T07:20:57;100852.19;;;20.51;97.63
67015;BME280;1033;52.560;13.374;2022-08-20T07:23:27;100860.41;;;20.46;96.40
67015;BME280;1033;52.560;13.374;2022-08-20T07:25:58;100864.53;;;20.48;96.96
67015;BME280;1033;52.560;13.374;2022-08-20T07:28:27;100864.50;;;20.33;96.73
67015;BME280;1033;52.560;13.374;2022-08-20T07:30:58;100866.13;;;20.34;97.39
67015;BME280;1033;52.560;13.374;2022-08-20T07:33:47;100876.34;;;20.44;96.52
67015;BME280;1033;52.560;13.374;2022-08-20T07:36:18;100881.66;;;20.60;96.33
67015;BME280;1033;52.560;13.374;2022-08-20T07:38:47;100879.81;;;20.81;96.10
67015;BME280;1033;52.560;13.374;2022-08-20T07:41:18;100887.22;;;20.80;95.00
67015;BME280;1033;52.560;13.374;2022-08-20T07:43:47;100880.81;;;20.60;94.85
67015;BME280;1033;52.560;13.374;2022-08-20T07:46:19;100889.63;;;20.62;95.87
67015;BME280;1033;52.560;13.374;2022-08-20T07:48:49;100888.22;;;20.54;96.57
67015;BME280;1033;52.560;13.374;2022-08-20T07:51:21;100886.31;;;20.60;96.48
67015;BME280;1033;52.560;13.374;2022-08-20T07:53:51;100886.84;;;20.52;95.58
67015;BME280;1033;52.560;13.374;2022-08-20T07:56:22;100879.97;;;20.59;95.46
67015;BME280;1033;52.560;13.374;2022-08-20T07:58:54;100879.16;;;20.59;95.75
67015;BME280;1033;52.560;13.374;2022-08-20T08:01:28;100874.78;;;20.68;95.81
67015;BME280;1033;52.560;13.374;2022-08-20T08:03:59;100873.16;;;20.67;94.25
67015;BME280;1033;52.560;13.374;2022-08-20T08:06:30;100876.41;;;20.59;94.95
67015;BME280;1033;52.560;13.374;2022-08-20T08:09:05;100882.44;;;20.56;96.29
67015;BME280;1033;52.560;13.374;2022-08-20T08:11:38;100890.19;;;20.69;95.91
67015;BME280;1033;52.560;13.374;2022-08-20T08:14:15;100889.66;;;20.77;94.87
67015;BME280;1033;52.560;13.374;2022-08-20T08:16:46;100891.41;;;21.03;95.00
67015;BME280;1033;52.560;13.374;2022-08-20T08:19:17;100889.72;;;20.92;94.49
67015;BME280;1033;52.560;13.374;2022-08-20T08:21:48;100895.22;;;20.92;93.75
67015;BME280;1033;52.560;13.374;2022-08-20T08:24:17;100894.69;;;20.95;94.57
67015;BME280;1033;52.560;13.374;2022-08-20T08:26:51;100893.31;;;20.93;94.72
67015;BME280;1033;52.560;13.374;2022-08-20T08:29:20;100896.88;;;20.93;95.34
67015;BME280;1033;52.560;13.374;2022-08-20T08:31:50;100902.97;;;21.00;94.14
67015;BME280;1033;52.560;13.374;2022-08-20T08:34:18;100913.69;;;21.07;94.15
67015;BME280;1033;52.560;13.374;2022-08-20T08:36:50;100906.84;;;21.09;93.27
67015;BME280;1033;52.560;13.374;2022-08-20T08:39:22;100900.81;;;21.17;93.20
67015;BME280;1033;52.560;13.374;2022-08-20T08:42:00;100897.75;;;21.09;94.03
67015;BME280;1033;52.560;13.374;2022-08-20T08:44:38;100899.69;;;21.08;93.36
67015;BME280;1033;52.560;13.374;2022-08-20T08:47:16;100903.50;;;20.97;93.47
67015;BME280;1033;52.560;13.374;2022-08-20T08:49:48;100899.94;;;21.07;93.54
67015;BME280;1033;52.560;13.374;2022-08-20T08:52:22;100899.69;;;21.08;94.96
67015;BME280;1033;52.560;13.374;2022-08-20T08:54:57;100904.16;;;21.24;93.04
67015;BME280;1033;52.560;13.374;2022-08-20T08:57:27;100903.88;;;21.31;92.66
67015;BME280;1033;52.560;13.374;2022-08-20T09:00:00;100899.22;;;21.62;90.69
67015;BME280;1033;52.560;13.374;2022-08-20T09:02:33;100895.91;;;21.90;88.44
67015;BME280;1033;52.560;13.374;2022-08-20T09:05:15;100897.56;;;22.12;86.82
67015;BME280;1033;52.560;13.374;2022-08-20T09:07:50;100890.94;;;22.18;87.56
67015;BME280;1033;52.560;13.374;2022-08-20T09:10:20;100902.44;;;22.45;84.72
67015;BME280;1033;52.560;13.374;2022-08-20T09:12:50;100913.81;;;22.08;85.48
67015;BME280;1033;52.560;13.374;2022-08-20T09:15:20;100913.03;;;21.97;85.83
67015;BME280;1033;52.560;13.374;2022-08-20T09:17:49;100921.81;;;21.99;85.38
67015;BME280;1033;52.560;13.374;2022-08-20T09:20:18;100915.78;;;22.02;87.29
67015;BME280;1033;52.560;13.374;2022-08-20T09:22:55;100917.94;;;22.21;85.95
67015;BME280;1033;52.560;13.374;2022-08-20T09:25:24;100926.22;;;22.05;86.77
67015;BME280;1033;52.560;13.374;2022-08-20T09:27:53;100927.31;;;22.20;86.66
67015;BME280;1033;52.560;13.374;2022-08-20T09:30:23;100927.31;;;22.09;86.55
67015;BME280;1033;52.560;13.374;2022-08-20T09:32:52;100922.91;;;22.08;86.58
67015;BME280;1033;52.560;13.374;2022-08-20T09:35:22;100932.81;;;22.25;87.07
67015;BME280;1033;52.560;13.374;2022-08-20T09:37:51;100930.88;;;22.25;86.14
67015;BME280;1033;52.560;13.374;2022-08-20T09:40:22;100927.31;;;22.15;85.93
67015;BME280;1033;52.560;13.374;2022-08-20T09:42:51;100925.13;;;21.81;87.64
67015;BME280;1033;52.560;13.374;2022-08-20T09:45:21;100926.75;;;22.13;87.50
67015;BME280;1033;52.560;13.374;2022-08-20T09:47:50;100929.56;;;21.97;86.53
67015;BME280;1033;52.560;13.374;2022-08-20T09:50:31;100937.00;;;22.07;85.81
67015;BME280;1033;52.560;13.374;2022-08-20T09:53:04;100930.63;;;22.22;84.83
67015;BME280;1033;52.560;13.374;2022-08-20T09:55:38;100929.72;;;22.51;82.09
67015;BME280;1033;52.560;13.374;2022-08-20T09:58:20;100931.72;;;22.16;82.13
67015;BME280;1033;52.560;13.374;2022-08-20T10:00:50;100929.22;;;22.29;83.13
67015;BME280;1033;52.560;13.374;2022-08-20T10:03:19;100925.03;;;22.42;82.98
67015;BME280;1033;52.560;13.374;2022-08-20T10:05:48;100930.00;;;22.50;82.09
67015;BME280;1033;52.560;13.374;2022-08-20T10:08:17;100934.72;;;22.34;79.39
67015;BME280;1033;52.560;13.374;2022-08-20T10:10:48;100932.75;;;22.50;79.74
67015;BME280;1033;52.560;13.374;2022-08-20T10:13:17;100930.31;;;22.33;80.74
67015;BME280;1033;52.560;13.374;2022-08-20T10:15:46;100928.13;;;22.35;80.66
67015;BME280;1033;52.560;13.374;2022-08-20T10:18:15;100921.75;;;22.40;79.66
67015;BME280;1033;52.560;13.374;2022-08-20T10:20:44;100921.59;;;22.85;77.62
67015;BME280;1033;52.560;13.374;2022-08-20T10:23:14;100932.16;;;22.73;77.07
67015;BME280;1033;52.560;13.374;2022-08-20T10:25:43;100930.84;;;23.15;74.96
67015;BME280;1033;52.560;13.374;2022-08-20T10:28:13;100929.69;;;23.26;75.36
67015;BME280;1033;52.560;13.374;2022-08-20T10:30:42;100929.56;;;23.51;73.78
67015;BME280;1033;52.560;13.374;2022-08-20T10:33:13;100923.50;;;23.39;74.01
67015;BME280;1033;52.560;13.374;2022-08-20T10:35:42;100926.50;;;23.04;72.39
67015;BME280;1033;52.560;13.374;2022-08-20T10:38:15;100931.16;;;23.13;74.37
67015;BME280;1033;52.560;13.374;2022-08-20T10:40:48;100935.31;;;23.06;74.32
67015;BME280;1033;52.560;13.374;2022-08-20T10:43:20;100922.28;;;23.16;74.85
67015;BME280;1033;52.560;13.374;2022-08-20T10:45:50;100923.56;;;23.29;73.63
67015;BME280;1033;52.560;13.374;2022-08-20T10:48:20;100925.28;;;23.20;73.50
67015;BME280;1033;52.560;13.374;2022-08-20T10:50:49;100920.47;;;22.96;73.95
67015;BME280;1033;52.560;13.374;2022-08-20T10:53:18;100929.59;;;22.92;73.95
67015;BME280;1033;52.560;13.374;2022-08-20T10:58:16;100933.41;;;23.01;72.43
67015;BME280;1033;52.560;13.374;2022-08-20T11:00:52;100930.53;;;23.21;72.05
67015;BME280;1033;52.560;13.374;2022-08-20T11:03:21;100929.50;;;23.12;71.72
67015;BME280;1033;52.560;13.374;2022-08-20T11:05:50;100933.97;;;23.03;71.43
67015;BME280;1033;52.560;13.374;2022-08-20T11:08:19;100945.31;;;23.46;72.22
67015;BME280;1033;52.560;13.374;2022-08-20T11:11:02;100941.66;;;23.06;69.81
67015;BME280;1033;52.560;13.374;2022-08-20T11:13:34;100945.81;;;23.04;70.25
67015;BME280;1033;52.560;13.374;2022-08-20T11:16:05;100939.94;;;23.20;69.54
67015;BME280;1033;52.560;13.374;2022-08-20T11:18:34;100941.69;;;23.50;68.36
67015;BME280;1033;52.560;13.374;2022-08-20T11:21:04;100935.69;;;23.38;67.50
67015;BME280;1033;52.560;13.374;2022-08-20T11:23:35;100944.03;;;23.28;67.21
67015;BME280;1033;52.560;13.374;2022-08-20T11:26:04;100947.22;;;23.50;68.07
67015;BME280;1033;52.560;13.374;2022-08-20T11:28:33;100947.06;;;23.26;67.91
67015;BME280;1033;52.560;13.374;2022-08-20T11:31:04;100945.22;;;23.12;67.72
67015;BME280;1033;52.560;13.374;2022-08-20T11:33:33;100943.25;;;23.22;66.32
67015;BME280;1033;52.560;13.374;2022-08-20T11:36:03;100947.22;;;22.96;65.69
67015;BME280;1033;52.560;13.374;2022-08-20T11:38:32;100947.44;;;23.05;65.78
67015;BME280;1033;52.560;13.374;2022-08-20T11:41:01;100944.34;;;23.21;66.55
67015;BME280;1033;52.560;13.374;2022-08-20T11:43:30;100944.03;;;23.28;64.73
67015;BME280;1033;52.560;13.374;2022-08-20T11:45:59;100954.63;;;23.06;65.00
67015;BME280;1033;52.560;13.374;2022-08-20T11:48:30;100948.25;;;23.10;65.20
67015;BME280;1033;52.560;13.374;2022-08-20T11:50:59;100955.03;;;23.38;65.16
67015;BME280;1033;52.560;13.374;2022-08-20T11:53:28;100951.19;;;23.29;64.21
67015;BME280;1033;52.560;13.374;2022-08-20T11:55:59;100951.88;;;23.06;66.00
67015;BME280;1033;52.560;13.374;2022-08-20T11:58:30;100956.84;;;23.09;65.41
67015;BME280;1033;52.560;13.374;2022-08-20T12:01:00;100954.41;;;22.97;65.66
67015;BME280;1033;52.560;13.374;2022-08-20T12:03:30;100951.91;;;23.01;66.53
67015;BME280;1033;52.560;13.374;2022-08-20T12:06:00;100961.50;;;23.18;66.34
67015;BME280;1033;52.560;13.374;2022-08-20T12:08:29;100960.34;;;23.19;65.20
67015;BME280;1033;52.560;13.374;2022-08-20T12:11:00;100967.25;;;23.22;66.15
67015;BME280;1033;52.560;13.374;2022-08-20T12:13:33;100962.63;;;23.12;67.28
67015;BME280;1033;52.560;13.374;2022-08-20T12:16:16;100956.97;;;22.78;67.22
67015;BME280;1033;52.560;13.374;2022-08-20T12:18:48;100960.59;;;23.28;66.92
67015;BME280;1033;52.560;13.374;2022-08-20T12:21:17;100957.22;;;23.46;65.13
67015;BME280;1033;52.560;13.374;2022-08-20T12:23:47;100958.41;;;23.20;65.15
67015;BME280;1033;52.560;13.374;2022-08-20T12:26:16;100959.28;;;23.15;65.53
67015;BME280;1033;52.560;13.374;2022-08-20T12:28:45;100955.81;;;22.94;65.08
67015;BME280;1033;52.560;13.374;2022-08-20T12:31:14;100963.00;;;22.85;66.29
67015;BME280;1033;52.560;13.374;2022-08-20T12:33:44;100969.31;;;22.96;66.26
67015;BME280;1033;52.560;13.374;2022-08-20T12:36:14;100961.25;;;23.05;65.07
67015;BME280;1033;52.560;13.374;2022-08-20T12:38:43;100962.69;;;22.97;65.59
67015;BME280;1033;52.560;13.374;2022-08-20T12:41:12;100972.31;;;23.00;65.69
67015;BME280;1033;52.560;13.374;2022-08-20T12:43:41;100962.47;;;23.37;65.17
67015;BME280;1033;52.560;13.374;2022-08-20T12:46:10;100974.25;;;23.04;65.13
67015;BME280;1033;52.560;13.374;2022-08-20T12:48:39;100974.59;;;22.82;64.76
67015;BME280;1033;52.560;13.374;2022-08-20T12:51:09;100974.13;;;22.50;66.37
67015;BME280;1033;52.560;13.374;2022-08-20T12:53:39;100971.34;;;22.70;67.07
67015;BME280;1033;52.560;13.374;2022-08-20T12:56:08;100973.53;;;22.63;66.20
67015;BME280;1033;52.560;13.374;2022-08-20T12:58:37;100973.47;;;22.93;65.53
67015;BME280;1033;52.560;13.374;2022-08-20T13:01:06;100970.78;;;22.73;66.37
67015;BME280;1033;52.560;13.374;2022-08-20T13:03:35;100965.47;;;22.92;65.85
67015;BME280;1033;52.560;13.374;2022-08-20T13:06:11;100963.31;;;22.79;66.41
67015;BME280;1033;52.560;13.374;2022-08-20T13:08:42;100970.28;;;22.46;67.15
67015;BME280;1033;52.560;13.374;2022-08-20T13:11:11;100976.00;;;22.70;66.92